Terminal Aerodrome Forecast
Issued by NWS Cleveland, OH

Home | Current Version | Previous Version | Text Only | Print | Product List | Glossary On
Versions: 1 2 3 4 5 6 7 8 9 10 11 12 13 14 15 16 17 18 19 20 21 22 23 24 25 26
000
FTUS41 KCLE 300900 AAA
TAFCLE
TAF AMD
KCLE 300905Z 3009/0112 26004KT P6SM SCT015 OVC080
      TEMPO 3011/3013 5SM -RA BR OVC015
     FM301300 32006KT 5SM BR OVC007
      TEMPO 3013/3015 2SM -RA BR OVC004
     FM301500 36008KT P6SM OVC007
     FM302100 36008KT P6SM OVC015=

USA.gov is the U.S. government's official web portal to all federal, state and local government web resources and services.